sensor_id;sensor_type;location;lat;lon;timestamp;pressure;altitude;pressure_sealevel;temperature;humidity
59650;BME280;46162;57.568;25.814;2023-10-13T00:02:00;99692.06;;;5.03;100.00
59650;BME280;46162;57.568;25.814;2023-10-13T00:04:30;99694.03;;;5.10;100.00
59650;BME280;46162;57.568;25.814;2023-10-13T00:07:02;99709.25;;;5.20;100.00
59650;BME280;46162;57.568;25.814;2023-10-13T00:09:31;99703.31;;;5.16;100.00
59650;BME280;46162;57.568;25.814;2023-10-13T00:12:00;99697.84;;;5.17;100.00
59650;BME280;46162;57.568;25.814;2023-10-13T00:14:31;99702.75;;;5.12;100.00
59650;BME280;46162;57.568;25.814;2023-10-13T00:17:01;99704.72;;;5.20;100.00
59650;BME280;46162;57.568;25.814;2023-10-13T00:19:33;99715.72;;;5.27;100.00
59650;BME280;46162;57.568;25.814;2023-10-13T00:22:08;99716.81;;;5.34;100.00
59650;BME280;46162;57.568;25.814;2023-10-13T00:24:40;99725.97;;;5.41;100.00
59650;BME280;46162;57.568;25.814;2023-10-13T00:27:15;99732.47;;;5.38;100.00
59650;BME280;46162;57.568;25.814;2023-10-13T00:30:02;99723.88;;;5.45;100.00
59650;BME280;46162;57.568;25.814;2023-10-13T00:32:47;99738.22;;;5.53;100.00
59650;BME280;46162;57.568;25.814;2023-10-13T00:35:20;99734.69;;;5.72;100.00
59650;BME280;46162;57.568;25.814;2023-10-13T00:37:57;99735.81;;;5.70;100.00
59650;BME280;46162;57.568;25.814;2023-10-13T00:40:32;99744.41;;;5.64;100.00
59650;BME280;46162;57.568;25.814;2023-10-13T00:43:17;99748.78;;;5.65;100.00
59650;BME280;46162;57.568;25.814;2023-10-13T00:46:02;99752.31;;;5.65;100.00
59650;BME280;46162;57.568;25.814;2023-10-13T00:48:37;99762.19;;;5.65;100.00
59650;BME280;46162;57.568;25.814;2023-10-13T00:51:20;99758.78;;;5.63;100.00
59650;BME280;46162;57.568;25.814;2023-10-13T00:54:05;99770.03;;;5.66;100.00
59650;BME280;46162;57.568;25.814;2023-10-13T00:56:39;99773.72;;;5.65;100.00
59650;BME280;46162;57.568;25.814;2023-10-13T00:59:11;99779.94;;;5.56;100.00
59650;BME280;46162;57.568;25.814;2023-10-13T01:01:41;99786.41;;;5.63;100.00
59650;BME280;46162;57.568;25.814;2023-10-13T01:04:12;99794.84;;;5.78;100.00
59650;BME280;46162;57.568;25.814;2023-10-13T01:06:42;99801.94;;;5.69;100.00
59650;BME280;46162;57.568;25.814;2023-10-13T01:09:11;99798.81;;;5.64;100.00
59650;BME280;46162;57.568;25.814;2023-10-13T01:11:42;99810.09;;;5.58;100.00
59650;BME280;46162;57.568;25.814;2023-10-13T01:14:10;99816.44;;;5.47;100.00
59650;BME280;46162;57.568;25.814;2023-10-13T01:16:39;99817.28;;;5.48;100.00
59650;BME280;46162;57.568;25.814;2023-10-13T01:19:07;99817.69;;;5.53;100.00
59650;BME280;46162;57.568;25.814;2023-10-13T01:21:39;99822.78;;;5.56;100.00
59650;BME280;46162;57.568;25.814;2023-10-13T01:24:09;99830.81;;;5.56;100.00
59650;BME280;46162;57.568;25.814;2023-10-13T01:26:44;99829.00;;;5.56;100.00
59650;BME280;46162;57.568;25.814;2023-10-13T01:29:11;99843.50;;;5.54;100.00
59650;BME280;46162;57.568;25.814;2023-10-13T01:31:44;99839.84;;;5.55;100.00
59650;BME280;46162;57.568;25.814;2023-10-13T01:34:15;99855.19;;;5.53;100.00
59650;BME280;46162;57.568;25.814;2023-10-13T01:36:50;99857.56;;;5.46;100.00
59650;BME280;46162;57.568;25.814;2023-10-13T01:39:21;99852.38;;;5.45;100.00
59650;BME280;46162;57.568;25.814;2023-10-13T01:41:53;99859.97;;;5.39;100.00
59650;BME280;46162;57.568;25.814;2023-10-13T01:44:24;99868.72;;;5.42;100.00
59650;BME280;46162;57.568;25.814;2023-10-13T01:46:53;99860.94;;;5.38;100.00
59650;BME280;46162;57.568;25.814;2023-10-13T01:49:21;99864.91;;;5.34;100.00
59650;BME280;46162;57.568;25.814;2023-10-13T01:51:50;99876.84;;;5.30;100.00
59650;BME280;46162;57.568;25.814;2023-10-13T01:54:19;99889.22;;;5.22;100.00
59650;BME280;46162;57.568;25.814;2023-10-13T01:56:49;99892.06;;;5.20;100.00
59650;BME280;46162;57.568;25.814;2023-10-13T01:59:17;99892.88;;;5.21;100.00
59650;BME280;46162;57.568;25.814;2023-10-13T02:01:47;99895.44;;;5.22;100.00
59650;BME280;46162;57.568;25.814;2023-10-13T02:04:14;99902.34;;;5.25;100.00
59650;BME280;46162;57.568;25.814;2023-10-13T02:06:48;99901.94;;;5.29;100.00
59650;BME280;46162;57.568;25.814;2023-10-13T02:09:16;99903.63;;;5.30;100.00
59650;BME280;46162;57.568;25.814;2023-10-13T02:11:54;99916.28;;;5.28;100.00
59650;BME280;46162;57.568;25.814;2023-10-13T02:14:22;99916.88;;;5.32;100.00
59650;BME280;46162;57.568;25.814;2023-10-13T02:16:53;99912.38;;;5.32;100.00
59650;BME280;46162;57.568;25.814;2023-10-13T02:19:40;99932.34;;;5.28;100.00
59650;BME280;46162;57.568;25.814;2023-10-13T02:22:13;99925.44;;;5.26;100.00
59650;BME280;46162;57.568;25.814;2023-10-13T02:24:53;99927.81;;;5.19;100.00
59650;BME280;46162;57.568;25.814;2023-10-13T02:27:33;99927.91;;;4.77;100.00
59650;BME280;46162;57.568;25.814;2023-10-13T02:30:08;99922.50;;;4.88;100.00
59650;BME280;46162;57.568;25.814;2023-10-13T02:32:42;99935.75;;;4.90;100.00
59650;BME280;46162;57.568;25.814;2023-10-13T02:35:11;99943.16;;;4.86;100.00
59650;BME280;46162;57.568;25.814;2023-10-13T02:37:43;99948.53;;;4.86;100.00
59650;BME280;46162;57.568;25.814;2023-10-13T02:40:12;99938.53;;;4.88;100.00
59650;BME280;46162;57.568;25.814;2023-10-13T02:42:42;99941.09;;;4.90;100.00
59650;BME280;46162;57.568;25.814;2023-10-13T02:45:10;99941.09;;;4.90;100.00
59650;BME280;46162;57.568;25.814;2023-10-13T02:47:39;99954.31;;;4.91;100.00
59650;BME280;46162;57.568;25.814;2023-10-13T02:50:10;99956.16;;;4.91;100.00
59650;BME280;46162;57.568;25.814;2023-10-13T02:52:40;99965.84;;;4.82;100.00
59650;BME280;46162;57.568;25.814;2023-10-13T02:55:09;99962.16;;;4.83;100.00
59650;BME280;46162;57.568;25.814;2023-10-13T02:57:44;99969.91;;;4.86;100.00
59650;BME280;46162;57.568;25.814;2023-10-13T03:00:13;99967.34;;;4.75;100.00
59650;BME280;46162;57.568;25.814;2023-10-13T03:02:43;99963.59;;;4.87;100.00
59650;BME280;46162;57.568;25.814;2023-10-13T03:05:23;99968.38;;;4.63;100.00
59650;BME280;46162;57.568;25.814;2023-10-13T03:07:51;99967.78;;;4.59;100.00
59650;BME280;46162;57.568;25.814;2023-10-13T03:10:22;99965.97;;;4.60;100.00
59650;BME280;46162;57.568;25.814;2023-10-13T03:12:57;99975.09;;;4.57;100.00
59650;BME280;46162;57.568;25.814;2023-10-13T03:15:26;99979.31;;;4.60;100.00
59650;BME280;46162;57.568;25.814;2023-10-13T03:17:57;99978.19;;;4.52;100.00
59650;BME280;46162;57.568;25.814;2023-10-13T03:20:26;99987.75;;;4.55;100.00
59650;BME280;46162;57.568;25.814;2023-10-13T03:22:59;99997.47;;;4.56;100.00
59650;BME280;46162;57.568;25.814;2023-10-13T03:25:30;100015.34;;;4.56;100.00
59650;BME280;46162;57.568;25.814;2023-10-13T03:28:12;100010.56;;;4.59;100.00
59650;BME280;46162;57.568;25.814;2023-10-13T03:30:44;100009.28;;;4.53;100.00
59650;BME280;46162;57.568;25.814;2023-10-13T03:33:12;100022.91;;;4.50;100.00
59650;BME280;46162;57.568;25.814;2023-10-13T03:35:41;100021.91;;;4.51;100.00
59650;BME280;46162;57.568;25.814;2023-10-13T03:38:13;100020.00;;;4.42;100.00
59650;BME280;46162;57.568;25.814;2023-10-13T03:40:55;100021.97;;;4.40;100.00
59650;BME280;46162;57.568;25.814;2023-10-13T03:43:36;100023.53;;;4.43;100.00
59650;BME280;46162;57.568;25.814;2023-10-13T03:46:13;100038.47;;;4.45;100.00
59650;BME280;46162;57.568;25.814;2023-10-13T03:48:42;100037.75;;;4.43;100.00
59650;BME280;46162;57.568;25.814;2023-10-13T03:51:22;100050.66;;;4.38;100.00
59650;BME280;46162;57.568;25.814;2023-10-13T03:53:59;100054.66;;;4.32;100.00
59650;BME280;46162;57.568;25.814;2023-10-13T03:56:35;100056.22;;;4.35;100.00
59650;BME280;46162;57.568;25.814;2023-10-13T03:59:10;100065.13;;;4.36;100.00
59650;BME280;46162;57.568;25.814;2023-10-13T04:01:47;100064.97;;;4.37;100.00
59650;BME280;46162;57.568;25.814;2023-10-13T04:04:27;100067.19;;;4.32;100.00
59650;BME280;46162;57.568;25.814;2023-10-13T04:07:09;100062.38;;;4.26;100.00
59650;BME280;46162;57.568;25.814;2023-10-13T04:09:55;100068.38;;;4.39;100.00
59650;BME280;46162;57.568;25.814;2023-10-13T04:12:53;100067.28;;;4.42;100.00
59650;BME280;46162;57.568;25.814;2023-10-13T04:15:42;100067.16;;;4.43;100.00
59650;BME280;46162;57.568;25.814;2023-10-13T04:18:31;100072.69;;;4.51;100.00
59650;BME280;46162;57.568;25.814;2023-10-13T04:21:14;100075.38;;;4.51;100.00
59650;BME280;46162;57.568;25.814;2023-10-13T04:24:08;100083.41;;;4.51;100.00
59650;BME280;46162;57.568;25.814;2023-10-13T04:26:36;100084.22;;;4.52;100.00
59650;BME280;46162;57.568;25.814;2023-10-13T04:29:25;100087.28;;;4.47;100.00
59650;BME280;46162;57.568;25.814;2023-10-13T04:32:15;100089.75;;;4.39;100.00
59650;BME280;46162;57.568;25.814;2023-10-13T04:34:56;100091.22;;;4.32;100.00
59650;BME280;46162;57.568;25.814;2023-10-13T04:37:26;100090.66;;;4.28;100.00
59650;BME280;46162;57.568;25.814;2023-10-13T04:40:00;100090.94;;;4.14;100.00
59650;BME280;46162;57.568;25.814;2023-10-13T04:42:37;100102.94;;;4.20;100.00
59650;BME280;46162;57.568;25.814;2023-10-13T04:45:21;100104.84;;;4.29;100.00
59650;BME280;46162;57.568;25.814;2023-10-13T04:48:18;100114.34;;;4.33;100.00
59650;BME280;46162;57.568;25.814;2023-10-13T04:51:00;100117.97;;;4.32;100.00
59650;BME280;46162;57.568;25.814;2023-10-13T04:54:01;100123.78;;;4.37;100.00
59650;BME280;46162;57.568;25.814;2023-10-13T04:56:38;100133.38;;;4.40;100.00
59650;BME280;46162;57.568;25.814;2023-10-13T04:59:45;100146.50;;;4.43;100.00
59650;BME280;46162;57.568;25.814;2023-10-13T05:02:32;100147.19;;;4.45;100.00
59650;BME280;46162;57.568;25.814;2023-10-13T05:05:47;100149.50;;;4.49;100.00
59650;BME280;46162;57.568;25.814;2023-10-13T05:08:29;100164.31;;;4.53;100.00
59650;BME280;46162;57.568;25.814;2023-10-13T05:11:15;100169.41;;;4.57;100.00
59650;BME280;46162;57.568;25.814;2023-10-13T05:14:03;100179.47;;;4.64;100.00
59650;BME280;46162;57.568;25.814;2023-10-13T05:16:49;100192.47;;;4.69;100.00
59650;BME280;46162;57.568;25.814;2023-10-13T05:19:35;100201.78;;;4.74;100.00
59650;BME280;46162;57.568;25.814;2023-10-13T05:22:24;100211.16;;;4.80;100.00
59650;BME280;46162;57.568;25.814;2023-10-13T05:25:10;100217.44;;;4.90;100.00
59650;BME280;46162;57.568;25.814;2023-10-13T05:27:56;100208.91;;;4.96;100.00
59650;BME280;46162;57.568;25.814;2023-10-13T05:31:02;100211.81;;;5.05;100.00
59650;BME280;46162;57.568;25.814;2023-10-13T05:33:49;100214.22;;;5.08;100.00
59650;BME280;46162;57.568;25.814;2023-10-13T05:36:35;100226.50;;;5.10;100.00
59650;BME280;46162;57.568;25.814;2023-10-13T05:39:24;100235.81;;;5.16;100.00
59650;BME280;46162;57.568;25.814;2023-10-13T05:42:10;100235.44;;;5.21;100.00
59650;BME280;46162;57.568;25.814;2023-10-13T05:44:56;100250.00;;;5.28;100.00
59650;BME280;46162;57.568;25.814;2023-10-13T05:47:49;100254.84;;;5.34;100.00
59650;BME280;46162;57.568;25.814;2023-10-13T05:50:29;100257.84;;;5.41;100.00
59650;BME280;46162;57.568;25.814;2023-10-13T05:53:12;100268.75;;;5.49;100.00
59650;BME280;46162;57.568;25.814;2023-10-13T05:56:01;100265.59;;;5.55;100.00
59650;BME280;46162;57.568;25.814;2023-10-13T05:58:48;100273.81;;;5.63;100.00
59650;BME280;46162;57.568;25.814;2023-10-13T06:01:34;100268.06;;;5.68;100.00
59650;BME280;46162;57.568;25.814;2023-10-13T06:04:21;100273.03;;;5.72;100.00
59650;BME280;46162;57.568;25.814;2023-10-13T06:07:08;100272.75;;;5.75;100.00
59650;BME280;46162;57.568;25.814;2023-10-13T06:09:54;100278.72;;;5.79;100.00
59650;BME280;46162;57.568;25.814;2023-10-13T06:12:44;100288.31;;;5.81;100.00
59650;BME280;46162;57.568;25.814;2023-10-13T06:15:35;100297.09;;;5.84;100.00
59650;BME280;46162;57.568;25.814;2023-10-13T06:18:21;100296.81;;;5.87;100.00
59650;BME280;46162;57.568;25.814;2023-10-13T06:21:07;100301.91;;;5.90;100.00
59650;BME280;46162;57.568;25.814;2023-10-13T06:23:53;100310.66;;;5.92;100.00
59650;BME280;46162;57.568;25.814;2023-10-13T06:26:42;100322.84;;;5.96;100.00
59650;BME280;46162;57.568;25.814;2023-10-13T06:29:29;100334.88;;;6.01;100.00
59650;BME280;46162;57.568;25.814;2023-10-13T06:31:58;100325.72;;;6.04;100.00
59650;BME280;46162;57.568;25.814;2023-10-13T06:34:29;100337.19;;;6.06;100.00
59650;BME280;46162;57.568;25.814;2023-10-13T06:37:12;100342.00;;;6.12;100.00
59650;BME280;46162;57.568;25.814;2023-10-13T06:39:53;100343.56;;;6.15;100.00
59650;BME280;46162;57.568;25.814;2023-10-13T06:42:23;100346.13;;;6.16;100.00
59650;BME280;46162;57.568;25.814;2023-10-13T06:44:56;100348.41;;;6.21;100.00
59650;BME280;46162;57.568;25.814;2023-10-13T06:47:27;100347.28;;;6.23;100.00
59650;BME280;46162;57.568;25.814;2023-10-13T06:49:56;100337.41;;;6.24;100.00
59650;BME280;46162;57.568;25.814;2023-10-13T06:52:27;100351.16;;;6.31;100.00
59650;BME280;46162;57.568;25.814;2023-10-13T06:54:57;100349.88;;;6.35;100.00
59650;BME280;46162;57.568;25.814;2023-10-13T06:57:31;100345.97;;;6.39;100.00
59650;BME280;46162;57.568;25.814;2023-10-13T07:00:05;100346.53;;;6.42;100.00
59650;BME280;46162;57.568;25.814;2023-10-13T07:02:36;100336.13;;;6.49;100.00
59650;BME280;46162;57.568;25.814;2023-10-13T07:05:05;100340.25;;;6.53;100.00
59650;BME280;46162;57.568;25.814;2023-10-13T07:07:39;100352.25;;;6.59;100.00
59650;BME280;46162;57.568;25.814;2023-10-13T07:10:09;100352.59;;;6.65;100.00
59650;BME280;46162;57.568;25.814;2023-10-13T07:12:39;100369.69;;;6.74;100.00
59650;BME280;46162;57.568;25.814;2023-10-13T07:15:12;100364.63;;;6.81;100.00
59650;BME280;46162;57.568;25.814;2023-10-13T07:17:47;100363.13;;;6.88;100.00
59650;BME280;46162;57.568;25.814;2023-10-13T07:20:22;100370.19;;;6.99;100.00
59650;BME280;46162;57.568;25.814;2023-10-13T07:23:00;100377.00;;;7.03;100.00
59650;BME280;46162;57.568;25.814;2023-10-13T07:25:32;100379.41;;;7.06;100.00
59650;BME280;46162;57.568;25.814;2023-10-13T07:28:05;100386.06;;;7.11;100.00
59650;BME280;46162;57.568;25.814;2023-10-13T07:30:38;100377.88;;;7.13;100.00
59650;BME280;46162;57.568;25.814;2023-10-13T07:33:16;100383.56;;;7.20;100.00
59650;BME280;46162;57.568;25.814;2023-10-13T07:35:47;100388.38;;;7.26;100.00
59650;BME280;46162;57.568;25.814;2023-10-13T07:38:17;100390.50;;;7.32;100.00
59650;BME280;46162;57.568;25.814;2023-10-13T07:40:48;100390.78;;;7.39;100.00
59650;BME280;46162;57.568;25.814;2023-10-13T07:43:18;100394.06;;;7.42;100.00
59650;BME280;46162;57.568;25.814;2023-10-13T07:45:51;100386.44;;;7.47;100.00
59650;BME280;46162;57.568;25.814;2023-10-13T07:48:26;100384.19;;;7.52;100.00
59650;BME280;46162;57.568;25.814;2023-10-13T07:51:02;100387.59;;;7.64;100.00
59650;BME280;46162;57.568;25.814;2023-10-13T07:53:31;100388.13;;;7.68;100.00
59650;BME280;46162;57.568;25.814;2023-10-13T07:56:06;100379.53;;;7.74;100.00
59650;BME280;46162;57.568;25.814;2023-10-13T07:58:39;100376.56;;;7.77;100.00
59650;BME280;46162;57.568;25.814;2023-10-13T08:01:22;100369.22;;;7.79;100.00
59650;BME280;46162;57.568;25.814;2023-10-13T08:03:52;100362.13;;;7.78;100.00
59650;BME280;46162;57.568;25.814;2023-10-13T08:06:32;100355.59;;;7.81;100.00
59650;BME280;46162;57.568;25.814;2023-10-13T08:09:04;100352.78;;;7.82;100.00
59650;BME280;46162;57.568;25.814;2023-10-13T08:11:57;100354.88;;;7.88;100.00
59650;BME280;46162;57.568;25.814;2023-10-13T08:14:25;100347.41;;;7.92;100.00
59650;BME280;46162;57.568;25.814;2023-10-13T08:17:08;100341.88;;;7.93;100.00
59650;BME280;46162;57.568;25.814;2023-10-13T08:19:38;100349.38;;;8.00;100.00
59650;BME280;46162;57.568;25.814;2023-10-13T08:22:14;100350.09;;;8.02;100.00
59650;BME280;46162;57.568;25.814;2023-10-13T08:24:56;100344.69;;;8.11;100.00
59650;BME280;46162;57.568;25.814;2023-10-13T08:27:42;100348.94;;;8.14;100.00
59650;BME280;46162;57.568;25.814;2023-10-13T08:30:17;100352.16;;;8.17;100.00
59650;BME280;46162;57.568;25.814;2023-10-13T08:32:59;100351.88;;;8.21;100.00
59650;BME280;46162;57.568;25.814;2023-10-13T08:35:45;100351.03;;;8.20;100.00
59650;BME280;46162;57.568;25.814;2023-10-13T08:38:31;100349.47;;;8.27;100.00
59650;BME280;46162;57.568;25.814;2023-10-13T08:41:18;100351.16;;;8.28;100.00
59650;BME280;46162;57.568;25.814;2023-10-13T08:44:02;100348.31;;;8.30;100.00
59650;BME280;46162;57.568;25.814;2023-10-13T08:46:38;100334.97;;;8.38;100.00
59650;BME280;46162;57.568;25.814;2023-10-13T08:49:27;100343.78;;;8.40;100.00
59650;BME280;46162;57.568;25.814;2023-10-13T08:51:59;100337.66;;;8.38;100.00
59650;BME280;46162;57.568;25.814;2023-10-13T08:54:55;100339.38;;;8.39;100.00
59650;BME280;46162;57.568;25.814;2023-10-13T08:57:56;100340.53;;;8.46;100.00
59650;BME280;46162;57.568;25.814;2023-10-13T09:00:31;100336.50;;;8.60;100.00
59650;BME280;46162;57.568;25.814;2023-10-13T09:03:16;100330.53;;;8.66;100.00
59650;BME280;46162;57.568;25.814;2023-10-13T09:06:12;100328.56;;;8.68;100.00
59650;BME280;46162;57.568;25.814;2023-10-13T09:08:42;100327.41;;;8.71;100.00
59650;BME280;46162;57.568;25.814;2023-10-13T09:11:33;100321.97;;;8.80;100.00
59650;BME280;46162;57.568;25.814;2023-10-13T09:14:17;100326.75;;;8.87;100.00
59650;BME280;46162;57.568;25.814;2023-10-13T09:17:04;100339.31;;;8.96;100.00
59650;BME280;46162;57.568;25.814;2023-10-13T09:19:48;100340.03;;;8.98;100.00
59650;BME280;46162;57.568;25.814;2023-10-13T09:22:25;100343.81;;;9.05;100.00
59650;BME280;46162;57.568;25.814;2023-10-13T09:24:55;100347.44;;;9.14;100.00
59650;BME280;46162;57.568;25.814;2023-10-13T09:27:28;100346.22;;;9.26;100.00
59650;BME280;46162;57.568;25.814;2023-10-13T09:29:56;100351.81;;;9.15;100.00
59650;BME280;46162;57.568;25.814;2023-10-13T09:32:25;100362.88;;;9.12;100.00
59650;BME280;46162;57.568;25.814;2023-10-13T09:35:00;100366.53;;;9.20;100.00
59650;BME280;46162;57.568;25.814;2023-10-13T09:37:31;100368.94;;;9.23;100.00
59650;BME280;46162;57.568;25.814;2023-10-13T09:40:01;100365.22;;;9.24;100.00
59650;BME280;46162;57.568;25.814;2023-10-13T09:42:52;100363.53;;;9.23;100.00
59650;BME280;46162;57.568;25.814;2023-10-13T09:45:27;100368.66;;;9.17;100.00
59650;BME280;46162;57.568;25.814;2023-10-13T09:48:01;100374.31;;;9.23;100.00
59650;BME280;46162;57.568;25.814;2023-10-13T09:50:37;100379.00;;;9.21;100.00
59650;BME280;46162;57.568;25.814;2023-10-13T09:53:10;100372.91;;;9.19;100.00
59650;BME280;46162;57.568;25.814;2023-10-13T09:55:43;100380.16;;;9.19;100.00
59650;BME280;46162;57.568;25.814;2023-10-13T09:58:14;100381.00;;;9.19;100.00
59650;BME280;46162;57.568;25.814;2023-10-13T10:00:48;100387.78;;;9.23;100.00
59650;BME280;46162;57.568;25.814;2023-10-13T10:03:25;100399.03;;;9.37;100.00
59650;BME280;46162;57.568;25.814;2023-10-13T10:06:07;100394.59;;;9.45;100.00
59650;BME280;46162;57.568;25.814;2023-10-13T10:08:45;100390.19;;;9.44;100.00
59650;BME280;46162;57.568;25.814;2023-10-13T10:12:02;100389.66;;;9.41;100.00
59650;BME280;46162;57.568;25.814;2023-10-13T10:14:58;100399.25;;;9.25;100.00
59650;BME280;46162;57.568;25.814;2023-10-13T10:17:30;100401.56;;;9.20;100.00
59650;BME280;46162;57.568;25.814;2023-10-13T10:20:07;100402.66;;;9.28;100.00
59650;BME280;46162;57.568;25.814;2023-10-13T10:23:00;100400.56;;;9.21;100.00
59650;BME280;46162;57.568;25.814;2023-10-13T10:25:31;100400.28;;;9.15;100.00
59650;BME280;46162;57.568;25.814;2023-10-13T10:28:04;100405.44;;;9.08;100.00
59650;BME280;46162;57.568;25.814;2023-10-13T10:30:34;100402.06;;;9.06;100.00
59650;BME280;46162;57.568;25.814;2023-10-13T10:33:06;100410.44;;;9.03;100.00
59650;BME280;46162;57.568;25.814;2023-10-13T10:35:40;100417.09;;;8.99;100.00
59650;BME280;46162;57.568;25.814;2023-10-13T10:38:11;100414.66;;;9.06;100.00
59650;BME280;46162;57.568;25.814;2023-10-13T10:40:51;100416.22;;;9.08;100.00
59650;BME280;46162;57.568;25.814;2023-10-13T10:43:26;100410.38;;;9.13;100.00
59650;BME280;46162;57.568;25.814;2023-10-13T10:46:00;100414.47;;;9.17;100.00
59650;BME280;46162;57.568;25.814;2023-10-13T10:48:31;100417.16;;;9.17;100.00
59650;BME280;46162;57.568;25.814;2023-10-13T10:51:02;100412.78;;;9.16;100.00
59650;BME280;46162;57.568;25.814;2023-10-13T10:53:42;100423.50;;;9.25;100.00
59650;BME280;46162;57.568;25.814;2023-10-13T10:56:18;100419.81;;;9.26;100.00
59650;BME280;46162;57.568;25.814;2023-10-13T10:58:56;100416.97;;;9.28;100.00
59650;BME280;46162;57.568;25.814;2023-10-13T11:01:26;100404.47;;;9.27;100.00
59650;BME280;46162;57.568;25.814;2023-10-13T11:04:03;100402.88;;;9.34;100.00
59650;BME280;46162;57.568;25.814;2023-10-13T11:06:45;100400.63;;;9.30;100.00
59650;BME280;46162;57.568;25.814;2023-10-13T11:09:15;100389.19;;;9.28;100.00
59650;BME280;46162;57.568;25.814;2023-10-13T11:12:10;100391.88;;;9.28;100.00
59650;BME280;46162;57.568;25.814;2023-10-13T11:14:43;100397.09;;;9.29;100.00
59650;BME280;46162;57.568;25.814;2023-10-13T11:17:19;100393.97;;;9.34;100.00
59650;BME280;46162;57.568;25.814;2023-10-13T11:19:54;100397.22;;;9.37;100.00
59650;BME280;46162;57.568;25.814;2023-10-13T11:22:23;100394.91;;;9.42;100.00
59650;BME280;46162;57.568;25.814;2023-10-13T11:25:01;100406.13;;;9.38;100.00
59650;BME280;46162;57.568;25.814;2023-10-13T11:27:38;100401.06;;;9.35;100.00
59650;BME280;46162;57.568;25.814;2023-10-13T11:30:24;100399.22;;;9.35;100.00
59650;BME280;46162;57.568;25.814;2023-10-13T11:32:57;100405.13;;;9.39;100.00
59650;BME280;46162;57.568;25.814;2023-10-13T11:35:28;100396.19;;;9.38;100.00
59650;BME280;46162;57.568;25.814;2023-10-13T11:38:16;100398.44;;;9.43;100.00
59650;BME280;46162;57.568;25.814;2023-10-13T11:40:54;100397.16;;;9.47;100.00
59650;BME280;46162;57.568;25.814;2023-10-13T11:43:42;100384.06;;;9.52;100.00
59650;BME280;46162;57.568;25.814;2023-10-13T11:46:28;100381.59;;;9.59;100.00
59650;BME280;46162;57.568;25.814;2023-10-13T11:49:15;100381.31;;;9.62;100.00
59650;BME280;46162;57.568;25.814;2023-10-13T11:51:59;100387.38;;;9.64;100.00
59650;BME280;46162;57.568;25.814;2023-10-13T11:54:43;100379.00;;;9.67;100.00
59650;BME280;46162;57.568;25.814;2023-10-13T11:57:14;100388.63;;;9.69;100.00
59650;BME280;46162;57.568;25.814;2023-10-13T11:59:48;100383.22;;;9.69;100.00
59650;BME280;46162;57.568;25.814;2023-10-13T12:02:44;100387.75;;;9.69;100.00
59650;BME280;46162;57.568;25.814;2023-10-13T12:05:31;100384.59;;;9.74;100.00
59650;BME280;46162;57.568;25.814;2023-10-13T12:08:16;100381.38;;;9.70;100.00
59650;BME280;46162;57.568;25.814;2023-10-13T12:11:00;100392.69;;;9.74;100.00
59650;BME280;46162;57.568;25.814;2023-10-13T12:13:48;100381.53;;;9.68;100.00
59650;BME280;46162;57.568;25.814;2023-10-13T12:16:21;100381.84;;;9.65;100.00
59650;BME280;46162;57.568;25.814;2023-10-13T12:18:49;100372.22;;;9.63;100.00
59650;BME280;46162;57.568;25.814;2023-10-13T12:21:20;100373.38;;;9.60;100.00
59650;BME280;46162;57.568;25.814;2023-10-13T12:23:49;100371.38;;;9.62;100.00
59650;BME280;46162;57.568;25.814;2023-10-13T12:26:19;100372.72;;;9.66;100.00
59650;BME280;46162;57.568;25.814;2023-10-13T12:29:00;100366.97;;;9.61;100.00
59650;BME280;46162;57.568;25.814;2023-10-13T12:31:35;100371.97;;;9.56;100.00
59650;BME280;46162;57.568;25.814;2023-10-13T12:34:06;100374.28;;;9.51;100.00
59650;BME280;46162;57.568;25.814;2023-10-13T12:36:46;100379.34;;;9.54;100.00
59650;BME280;46162;57.568;25.814;2023-10-13T12:39:33;100369.72;;;9.52;100.00
59650;BME280;46162;57.568;25.814;2023-10-13T12:42:18;100376.25;;;9.49;100.00
59650;BME280;46162;57.568;25.814;2023-10-13T12:45:05;100367.50;;;9.47;100.00
59650;BME280;46162;57.568;25.814;2023-10-13T12:47:54;100363.94;;;9.46;100.00
59650;BME280;46162;57.568;25.814;2023-10-13T12:50:40;100356.81;;;9.37;100.00
59650;BME280;46162;57.568;25.814;2023-10-13T12:53:12;100369.41;;;9.37;100.00
59650;BME280;46162;57.568;25.814;2023-10-13T12:55:41;100356.41;;;9.32;100.00
59650;BME280;46162;57.568;25.814;2023-10-13T12:58:09;100352.00;;;9.31;100.00
59650;BME280;46162;57.568;25.814;2023-10-13T13:00:38;100356.41;;;9.32;100.00
59650;BME280;46162;57.568;25.814;2023-10-13T13:03:17;100350.00;;;9.33;100.00
59650;BME280;46162;57.568;25.814;2023-10-13T13:05:46;100341.63;;;9.36;100.00
59650;BME280;46162;57.568;25.814;2023-10-13T13:08:16;100340.06;;;9.34;100.00
59650;BME280;46162;57.568;25.814;2023-10-13T13:10:50;100339.22;;;9.33;100.00
59650;BME280;46162;57.568;25.814;2023-10-13T13:13:19;100339.53;;;9.30;100.00
59650;BME280;46162;57.568;25.814;2023-10-13T13:15:53;100339.69;;;9.29;100.00
59650;BME280;46162;57.568;25.814;2023-10-13T13:18:23;100340.13;;;9.24;100.00
59650;BME280;46162;57.568;25.814;2023-10-13T13:20:52;100334.16;;;9.30;100.00
59650;BME280;46162;57.568;25.814;2023-10-13T13:23:24;100335.44;;;9.26;100.00
59650;BME280;46162;57.568;25.814;2023-10-13T13:25:54;100333.06;;;9.23;100.00
59650;BME280;46162;57.568;25.814;2023-10-13T13:28:25;100328.53;;;9.23;100.00
59650;BME280;46162;57.568;25.814;2023-10-13T13:30:57;100330.69;;;9.20;100.00
59650;BME280;46162;57.568;25.814;2023-10-13T13:33:27;100335.19;;;9.19;100.00
59650;BME280;46162;57.568;25.814;2023-10-13T13:36:00;100324.03;;;9.14;100.00